Time;durP1;ratioP1;P1;durP2;ratioP2;P2;SDS_P1;SDS_P2;PMS_P1;PMS_P2;Temp;Humidity;BMP_temperature;BMP_pressure;BME280_temperature;BME280_humidity;BME280_pressure;Samples;Min_cycle;Max_cycle;Signal;HPM_P1;HPM_P2
2021/09/28 00:00:37;;;;;;;9.90;8.90;;;17.20;99.90;;;;;;5025707;28;20256;-80
2021/09/28 00:03:05;;;;;;;14.50;9.00;;;17.00;99.90;;;;;;5025876;28;20612;-81
2021/09/28 00:05:31;;;;;;;19.33;8.57;;;16.90;99.90;;;;;;5025510;28;20408;-80
2021/09/28 00:07:57;;;;;;;10.90;9.80;;;16.80;99.90;;;;;;5025621;28;20436;-80
2021/09/28 00:10:23;;;;;;;11.77;8.40;;;16.80;99.90;;;;;;5026528;28;20408;-80
2021/09/28 00:12:49;;;;;;;12.73;8.97;;;16.70;99.90;;;;;;5027797;28;20173;-80
2021/09/28 00:15:17;;;;;;;13.77;8.93;;;16.70;99.90;;;;;;5024991;28;20213;-80
2021/09/28 00:17:43;;;;;;;12.43;9.17;;;16.60;99.90;;;;;;5026202;28;20470;-78
2021/09/28 00:20:10;;;;;;;11.30;8.70;;;16.60;99.90;;;;;;5025224;28;20424;-80
2021/09/28 00:22:37;;;;;;;11.17;10.00;;;16.60;99.90;;;;;;5024907;28;20551;-79
2021/09/28 00:25:05;;;;;;;19.57;10.43;;;16.60;99.90;;;;;;5033093;28;20460;-80
2021/09/28 00:27:30;;;;;;;12.33;9.90;;;16.50;99.90;;;;;;5031829;28;20428;-80
2021/09/28 00:29:56;;;;;;;12.63;10.60;;;16.40;99.90;;;;;;5025087;28;20411;-80
2021/09/28 00:32:22;;;;;;;14.70;10.70;;;16.40;99.90;;;;;;5023263;28;20211;-80
2021/09/28 00:34:48;;;;;;;11.77;10.60;;;16.20;99.90;;;;;;5024408;28;20208;-79
2021/09/28 00:37:14;;;;;;;13.97;10.20;;;16.30;99.90;;;;;;5024031;28;20403;-80
2021/09/28 00:39:40;;;;;;;13.70;10.80;;;16.20;99.90;;;;;;5023650;28;20525;-81
2021/09/28 00:42:07;;;;;;;9.20;8.23;;;16.20;99.90;;;;;;5024164;28;20189;-80
2021/09/28 00:44:39;;;;;;;14.77;11.10;;;16.20;99.90;;;;;;5023939;28;20169;-81
2021/09/28 00:47:07;;;;;;;11.63;8.87;;;16.20;99.90;;;;;;5024510;28;20905;-81
2021/09/28 00:49:33;;;;;;;11.00;9.80;;;16.10;99.90;;;;;;5026895;28;20397;-81
2021/09/28 00:51:59;;;;;;;12.00;10.23;;;16.00;99.90;;;;;;5026639;28;20739;-80
2021/09/28 00:54:25;;;;;;;11.37;10.27;;;15.90;99.90;;;;;;5027025;28;20193;-80
2021/09/28 00:56:52;;;;;;;13.20;10.07;;;15.90;99.90;;;;;;5027544;28;20404;-80
2021/09/28 00:59:19;;;;;;;13.13;10.83;;;15.90;99.90;;;;;;5028153;28;20165;-80
2021/09/28 01:01:46;;;;;;;16.90;10.53;;;15.90;99.90;;;;;;5026117;28;20432;-80
2021/09/28 01:04:16;;;;;;;11.67;9.60;;;15.90;99.90;;;;;;5027611;28;20454;-80
2021/09/28 01:06:44;;;;;;;11.00;9.23;;;15.90;99.90;;;;;;5027356;28;20541;-79
2021/09/28 01:09:12;;;;;;;12.30;9.30;;;16.00;99.90;;;;;;5027348;28;20408;-80
2021/09/28 01:11:40;;;;;;;9.83;8.70;;;16.00;99.90;;;;;;5027013;28;20392;-80
2021/09/28 01:14:08;;;;;;;11.43;9.23;;;16.10;99.90;;;;;;5025094;28;20862;-81
2021/09/28 01:16:34;;;;;;;11.07;9.33;;;16.30;99.90;;;;;;5028039;28;20400;-81
2021/09/28 01:19:02;;;;;;;11.80;9.50;;;16.50;99.90;;;;;;5027876;28;20459;-81
2021/09/28 01:21:29;;;;;;;12.47;10.00;;;16.60;99.90;;;;;;5026314;28;20464;-81
2021/09/28 01:23:55;;;;;;;9.07;8.10;;;16.70;99.90;;;;;;5026538;28;20405;-80
2021/09/28 01:26:24;;;;;;;8.13;7.40;;;16.80;99.90;;;;;;5027123;28;20404;-81
2021/09/28 01:28:51;;;;;;;12.67;9.47;;;16.80;99.90;;;;;;5026179;28;20423;-81
2021/09/28 01:31:18;;;;;;;10.37;8.10;;;16.80;99.90;;;;;;5028005;28;20400;-80
2021/09/28 01:33:44;;;;;;;11.60;9.23;;;16.80;99.90;;;;;;5035558;28;20452;-79
2021/09/28 01:36:11;;;;;;;11.23;8.87;;;16.90;99.90;;;;;;5038718;28;20395;-79
2021/09/28 01:38:38;;;;;;;10.03;9.03;;;16.90;99.90;;;;;;5038620;28;20162;-80
2021/09/28 01:41:04;;;;;;;9.80;8.47;;;17.10;99.90;;;;;;5031372;28;20911;-81
2021/09/28 01:43:30;;;;;;;9.60;8.67;;;17.10;99.90;;;;;;5026892;28;20412;-81
2021/09/28 01:45:59;;;;;;;10.37;9.20;;;17.20;99.90;;;;;;5027472;28;20409;-80
2021/09/28 01:48:37;;;;;;;11.13;9.10;;;17.10;99.90;;;;;;5024807;28;20405;-80
2021/09/28 01:51:03;;;;;;;11.23;8.50;;;17.20;99.90;;;;;;5036361;28;20396;-80
2021/09/28 01:53:29;;;;;;;8.13;7.33;;;17.20;99.90;;;;;;5025462;28;20540;-80
2021/09/28 01:55:55;;;;;;;7.80;7.00;;;17.30;99.90;;;;;;5026445;28;20464;-80
2021/09/28 01:58:21;;;;;;;7.50;6.80;;;17.30;99.90;;;;;;5031787;28;20150;-80
2021/09/28 02:00:47;;;;;;;10.50;6.97;;;17.40;99.90;;;;;;5038947;28;20180;-77
2021/09/28 02:03:13;;;;;;;11.70;6.33;;;17.40;99.90;;;;;;5036355;28;20173;-80
2021/09/28 02:05:40;;;;;;;6.60;6.00;;;17.40;99.90;;;;;;5038958;28;20217;-79
2021/09/28 02:08:07;;;;;;;7.43;5.27;;;17.50;99.90;;;;;;5036309;28;20185;-79
2021/09/28 02:10:33;;;;;;;4.27;3.47;;;17.50;99.90;;;;;;5038103;28;20491;-80
2021/09/28 02:12:59;;;;;;;3.50;2.63;;;17.40;99.90;;;;;;5039011;28;20427;-79
2021/09/28 02:15:27;;;;;;;3.60;2.93;;;17.40;99.90;;;;;;5038154;28;20452;-81
2021/09/28 02:17:53;;;;;;;2.60;2.40;;;17.30;99.90;;;;;;5033135;28;20162;-80
2021/09/28 02:20:19;;;;;;;3.00;2.40;;;17.20;99.90;;;;;;5035659;28;20420;-80
2021/09/28 02:22:45;;;;;;;2.60;2.40;;;17.10;99.90;;;;;;5035521;28;20172;-80
2021/09/28 02:25:13;;;;;;;3.00;2.77;;;17.00;99.90;;;;;;5037724;28;20161;-80
2021/09/28 02:27:40;;;;;;;1.57;1.47;;;16.90;99.90;;;;;;5026127;28;20157;-81
2021/09/28 02:30:07;;;;;;;4.70;2.10;;;16.80;99.90;;;;;;5025858;28;20445;-81
2021/09/28 02:32:33;;;;;;;2.33;1.80;;;16.80;99.90;;;;;;5028416;28;20397;-81
2021/09/28 02:35:00;;;;;;;2.40;2.20;;;16.80;99.90;;;;;;5031274;28;20463;-81
2021/09/28 02:37:26;;;;;;;1.50;1.40;;;16.70;99.90;;;;;;5026855;28;20169;-81
2021/09/28 02:39:52;;;;;;;1.50;1.17;;;16.70;99.90;;;;;;5025905;28;20435;-81
2021/09/28 02:42:18;;;;;;;3.33;1.50;;;16.70;99.90;;;;;;5026261;28;20404;-81
2021/09/28 02:44:44;;;;;;;1.57;1.30;;;16.60;99.90;;;;;;5025899;28;20393;-81
2021/09/28 02:47:09;;;;;;;3.10;1.50;;;16.50;99.90;;;;;;5026294;28;20168;-81
2021/09/28 02:49:35;;;;;;;2.50;1.50;;;16.50;99.90;;;;;;5027269;28;20272;-78
2021/09/28 02:52:01;;;;;;;1.10;1.00;;;16.50;99.90;;;;;;5026758;28;20599;-81
2021/09/28 02:54:27;;;;;;;1.30;1.20;;;16.50;99.90;;;;;;5033034;28;20224;-80
2021/09/28 02:56:53;;;;;;;3.30;1.30;;;16.40;99.90;;;;;;5035912;28;20389;-80
2021/09/28 02:59:19;;;;;;;1.30;1.20;;;16.30;99.90;;;;;;5034464;28;20162;-80
2021/09/28 03:01:46;;;;;;;1.30;1.20;;;16.40;99.90;;;;;;5030215;28;20161;-79
2021/09/28 03:04:11;;;;;;;1.20;1.10;;;16.40;99.90;;;;;;5032592;28;20434;-80
2021/09/28 03:06:37;;;;;;;1.90;1.10;;;16.50;99.90;;;;;;5032046;28;20451;-81
2021/09/28 03:09:03;;;;;;;2.87;1.13;;;16.40;99.90;;;;;;5024693;28;20161;-80
2021/09/28 03:11:30;;;;;;;1.17;1.07;;;16.40;99.90;;;;;;5023542;28;20415;-80
2021/09/28 03:13:56;;;;;;;2.03;1.00;;;16.40;99.90;;;;;;5024504;28;20467;-80
2021/09/28 03:16:23;;;;;;;4.90;1.10;;;16.40;99.90;;;;;;5024614;28;20423;-80
2021/09/28 03:18:49;;;;;;;1.00;0.90;;;16.30;99.90;;;;;;5025485;28;20401;-81
2021/09/28 03:21:15;;;;;;;1.30;1.20;;;16.30;99.90;;;;;;5024961;28;20866;-80
2021/09/28 03:23:41;;;;;;;1.20;1.10;;;16.40;99.90;;;;;;5023855;28;20568;-80
2021/09/28 03:26:07;;;;;;;1.07;0.97;;;16.40;99.90;;;;;;5025170;28;20169;-80
2021/09/28 03:28:32;;;;;;;1.10;1.00;;;16.40;99.90;;;;;;5025357;28;20169;-81
2021/09/28 03:31:00;;;;;;;3.57;1.20;;;16.30;99.90;;;;;;5024859;28;20569;-80
2021/09/28 03:33:26;;;;;;;1.67;1.20;;;16.30;99.90;;;;;;5024571;28;20201;-81
2021/09/28 03:35:52;;;;;;;1.10;1.00;;;16.30;99.90;;;;;;5024175;28;20804;-80
2021/09/28 03:38:18;;;;;;;1.50;1.40;;;16.20;99.90;;;;;;5024416;28;20457;-81
2021/09/28 03:40:44;;;;;;;1.50;1.40;;;16.20;99.90;;;;;;5025082;28;20488;-80
2021/09/28 03:43:10;;;;;;;1.90;1.33;;;16.10;99.90;;;;;;5023748;28;20781;-80
2021/09/28 03:45:37;;;;;;;1.20;1.10;;;16.10;99.90;;;;;;5023435;28;20484;-80
2021/09/28 03:48:03;;;;;;;1.10;1.00;;;16.10;99.90;;;;;;5016590;28;20189;-80
2021/09/28 03:50:29;;;;;;;1.50;1.40;;;16.00;99.90;;;;;;5026006;28;20416;-79
2021/09/28 03:52:55;;;;;;;1.40;1.30;;;16.00;99.90;;;;;;5025110;28;20889;-80
2021/09/28 03:55:22;;;;;;;2.03;1.20;;;16.00;99.90;;;;;;5023563;28;20821;-81
2021/09/28 03:57:49;;;;;;;1.30;1.20;;;16.10;99.90;;;;;;5025973;28;20393;-81
2021/09/28 04:00:17;;;;;;;4.13;1.30;;;16.10;99.90;;;;;;5035484;28;20434;-81
2021/09/28 04:02:43;;;;;;;1.10;1.00;;;16.10;99.90;;;;;;5031442;28;20405;-80
2021/09/28 04:05:10;;;;;;;1.20;1.10;;;16.10;99.90;;;;;;5025752;28;20411;-81
2021/09/28 04:07:37;;;;;;;1.10;1.00;;;16.20;99.90;;;;;;5024977;28;20170;-80
2021/09/28 04:10:05;;;;;;;1.30;1.20;;;16.10;99.90;;;;;;5025419;28;20404;-80
2021/09/28 04:12:31;;;;;;;1.37;1.27;;;16.10;99.90;;;;;;5024343;28;20423;-80
2021/09/28 04:15:00;;;;;;;1.70;1.60;;;16.10;99.90;;;;;;5024729;28;20550;-80
2021/09/28 04:17:26;;;;;;;1.30;1.20;;;16.10;99.90;;;;;;5024677;28;20409;-80
2021/09/28 04:19:53;;;;;;;8.93;1.43;;;16.10;99.90;;;;;;5024887;28;20439;-81
2021/09/28 04:22:20;;;;;;;1.70;1.20;;;16.10;99.90;;;;;;5025691;28;20464;-80
2021/09/28 04:24:46;;;;;;;1.20;1.10;;;16.10;99.90;;;;;;5027266;28;20420;-80
2021/09/28 04:27:12;;;;;;;2.33;1.30;;;16.00;99.90;;;;;;5027285;28;20424;-80
2021/09/28 04:29:39;;;;;;;2.40;1.60;;;16.00;99.90;;;;;;5027638;28;20436;-81
2021/09/28 04:32:05;;;;;;;3.00;1.40;;;15.60;99.90;;;;;;5027864;28;20177;-80
2021/09/28 04:34:31;;;;;;;3.97;2.67;;;15.60;99.90;;;;;;5027466;28;20468;-81
2021/09/28 04:36:56;;;;;;;1.80;1.70;;;15.60;99.90;;;;;;5026917;28;20405;-81
2021/09/28 04:39:23;;;;;;;5.33;2.00;;;15.60;99.90;;;;;;5027656;28;20172;-81
2021/09/28 04:41:49;;;;;;;5.97;2.60;;;15.70;99.90;;;;;;5026918;28;20268;-81
2021/09/28 04:44:15;;;;;;;1.87;1.77;;;15.40;99.90;;;;;;5025982;28;20424;-80
2021/09/28 04:46:41;;;;;;;2.27;1.93;;;15.50;99.90;;;;;;5026634;28;20900;-81
2021/09/28 04:49:07;;;;;;;2.07;1.60;;;15.50;99.90;;;;;;5028030;28;20400;-81
2021/09/28 04:51:32;;;;;;;2.70;1.80;;;15.50;99.90;;;;;;5028136;28;20638;-81
2021/09/28 04:53:58;;;;;;;2.17;1.90;;;15.60;99.90;;;;;;5028182;28;20204;-80
2021/09/28 04:56:24;;;;;;;1.87;1.77;;;15.60;99.90;;;;;;5032921;28;20165;-80
2021/09/28 04:58:50;;;;;;;2.37;1.90;;;15.50;99.90;;;;;;5033692;28;20157;-80
2021/09/28 05:01:16;;;;;;;2.13;2.03;;;15.60;99.90;;;;;;5032032;28;20176;-80
2021/09/28 05:03:42;;;;;;;4.40;2.87;;;15.60;99.90;;;;;;5027541;28;20496;-80
2021/09/28 05:06:08;;;;;;;2.93;2.37;;;15.50;99.90;;;;;;5026329;28;20404;-80
2021/09/28 05:08:34;;;;;;;2.43;2.23;;;15.50;99.90;;;;;;5026281;28;20256;-81
2021/09/28 05:11:00;;;;;;;2.23;2.10;;;15.50;99.90;;;;;;5026104;28;20161;-81
2021/09/28 05:13:26;;;;;;;2.50;2.30;;;15.40;99.90;;;;;;5024973;28;20462;-80
2021/09/28 05:15:52;;;;;;;6.23;2.30;;;15.40;99.90;;;;;;5026481;28;20417;-81
2021/09/28 05:18:18;;;;;;;2.37;2.17;;;15.50;99.90;;;;;;5027119;28;20853;-81
2021/09/28 05:20:44;;;;;;;4.30;2.23;;;15.50;99.90;;;;;;5026359;28;20456;-80
2021/09/28 05:23:10;;;;;;;2.00;1.90;;;15.40;99.90;;;;;;5008479;28;20603;-80
2021/09/28 05:25:36;;;;;;;2.50;2.23;;;15.50;99.90;;;;;;5025916;28;20666;-81
2021/09/28 05:28:02;;;;;;;3.23;2.30;;;15.40;99.90;;;;;;5025926;28;20199;-80
2021/09/28 05:30:27;;;;;;;2.77;2.57;;;15.40;99.90;;;;;;5026019;28;20455;-80
2021/09/28 05:32:54;;;;;;;7.00;2.60;;;15.40;99.90;;;;;;5024739;28;20197;-80
2021/09/28 05:35:20;;;;;;;2.47;2.27;;;15.40;99.90;;;;;;5017707;28;20480;-81
2021/09/28 05:37:46;;;;;;;3.13;2.30;;;15.40;99.90;;;;;;5026134;28;20467;-79
2021/09/28 05:40:13;;;;;;;3.17;2.30;;;15.40;99.90;;;;;;5024304;28;20203;-80
2021/09/28 05:42:40;;;;;;;5.20;2.70;;;15.40;99.90;;;;;;5025257;28;20510;-81
2021/09/28 05:45:06;;;;;;;4.33;2.47;;;15.40;99.90;;;;;;5025139;28;20433;-81
2021/09/28 05:47:32;;;;;;;4.13;2.77;;;15.40;99.90;;;;;;5022215;28;20435;-80
2021/09/28 05:49:58;;;;;;;3.97;3.30;;;15.50;99.90;;;;;;5009530;28;20432;-80
2021/09/28 05:52:25;;;;;;;6.73;3.00;;;15.50;99.90;;;;;;5017288;28;20181;-81
2021/09/28 05:54:51;;;;;;;4.33;2.83;;;15.50;99.90;;;;;;5025317;28;20200;-81
2021/09/28 05:57:19;;;;;;;10.70;3.27;;;15.50;99.90;;;;;;5022651;28;20451;-80
2021/09/28 05:59:46;;;;;;;3.97;3.40;;;15.50;99.90;;;;;;5022881;28;20432;-80
2021/09/28 06:02:13;;;;;;;2.83;2.60;;;15.60;99.90;;;;;;5012517;28;20632;-81
2021/09/28 06:04:40;;;;;;;4.60;3.50;;;15.60;99.90;;;;;;5015795;28;20436;-81
2021/09/28 06:07:07;;;;;;;4.03;3.00;;;15.70;99.90;;;;;;5016376;28;20451;-80
2021/09/28 06:09:35;;;;;;;4.97;4.03;;;15.70;99.90;;;;;;5022268;28;20432;-80
2021/09/28 06:12:03;;;;;;;3.20;2.97;;;15.60;99.90;;;;;;5022253;28;20428;-80
2021/09/28 06:14:29;;;;;;;5.23;3.80;;;15.60;99.90;;;;;;5008700;28;20586;-81
2021/09/28 06:16:57;;;;;;;4.00;3.60;;;15.70;99.90;;;;;;5019681;28;20448;-80
2021/09/28 06:19:24;;;;;;;5.47;3.67;;;15.70;99.90;;;;;;5022815;28;20431;-81
2021/09/28 06:21:50;;;;;;;3.97;2.97;;;15.60;99.90;;;;;;5022971;28;20514;-81
2021/09/28 06:24:16;;;;;;;4.93;3.43;;;15.60;99.90;;;;;;5018118;28;20428;-80
2021/09/28 06:26:43;;;;;;;6.00;3.30;;;15.60;99.90;;;;;;5021834;28;20436;-81
2021/09/28 06:29:09;;;;;;;4.30;3.00;;;15.50;99.90;;;;;;5022029;28;20533;-80
2021/09/28 06:31:35;;;;;;;4.07;3.43;;;15.50;99.90;;;;;;5011578;28;20425;-81
2021/09/28 06:34:01;;;;;;;4.27;3.87;;;15.50;99.90;;;;;;5013931;28;20479;-79
2021/09/28 06:36:27;;;;;;;4.10;3.70;;;15.50;99.90;;;;;;5016116;28;20185;-80
2021/09/28 06:38:52;;;;;;;6.23;4.07;;;15.50;99.90;;;;;;5008505;28;20185;-82
2021/09/28 06:41:19;;;;;;;4.83;4.30;;;15.60;99.90;;;;;;5007277;28;20189;-81
2021/09/28 06:43:46;;;;;;;7.73;3.50;;;15.60;99.90;;;;;;4997510;28;20197;-80
2021/09/28 06:46:12;;;;;;;5.57;4.57;;;15.70;99.90;;;;;;5014912;28;20512;-80
2021/09/28 06:48:38;;;;;;;4.27;3.97;;;15.80;99.90;;;;;;5013421;28;20483;-79
2021/09/28 06:51:03;;;;;;;9.60;4.73;;;15.80;99.90;;;;;;5016083;28;20737;-80
2021/09/28 06:53:34;;;;;;;4.37;4.07;;;15.90;99.90;;;;;;5020551;28;20193;-80
2021/09/28 06:55:59;;;;;;;7.57;4.10;;;15.90;99.90;;;;;;5013453;28;20201;-82
2021/09/28 06:58:25;;;;;;;6.63;4.67;;;15.90;99.90;;;;;;5013964;28;20444;-79
2021/09/28 07:00:51;;;;;;;7.50;4.77;;;16.00;99.90;;;;;;5011231;28;20193;-79
2021/09/28 07:03:17;;;;;;;5.23;4.83;;;16.00;99.90;;;;;;5004695;28;20652;-82
2021/09/28 07:05:47;;;;;;;4.73;4.30;;;16.00;99.90;;;;;;5010017;28;20740;-80
2021/09/28 07:08:16;;;;;;;4.83;4.43;;;15.90;99.90;;;;;;5004098;28;21802;-80
2021/09/28 07:10:41;;;;;;;5.60;4.40;;;16.00;99.90;;;;;;5009403;28;20443;-82
2021/09/28 07:13:08;;;;;;;5.73;4.10;;;16.00;99.90;;;;;;5007905;28;20527;-81
2021/09/28 07:15:34;;;;;;;4.00;3.60;;;16.00;99.90;;;;;;5008488;28;20220;-84
2021/09/28 07:18:00;;;;;;;4.90;3.93;;;16.10;99.90;;;;;;5006425;28;20441;-82
2021/09/28 07:20:26;;;;;;;4.57;4.13;;;16.20;99.90;;;;;;5002158;28;20234;-82
2021/09/28 07:22:52;;;;;;;4.33;3.93;;;16.30;99.90;;;;;;5008052;28;20200;-82
2021/09/28 07:25:20;;;;;;;4.23;3.93;;;16.50;99.90;;;;;;5008472;28;20459;-83
2021/09/28 07:27:46;;;;;;;4.83;4.23;;;16.50;99.90;;;;;;4991142;28;20448;-82
2021/09/28 07:30:12;;;;;;;4.40;3.40;;;16.50;99.90;;;;;;5007204;28;20452;-83
2021/09/28 07:32:38;;;;;;;4.00;3.70;;;16.60;99.90;;;;;;5006617;28;20189;-82
2021/09/28 07:35:06;;;;;;;3.63;3.40;;;16.70;99.90;;;;;;5007265;28;20578;-83
2021/09/28 07:37:32;;;;;;;4.83;3.97;;;16.80;99.90;;;;;;5010853;28;20562;-83
2021/09/28 07:39:59;;;;;;;7.73;4.17;;;16.90;99.90;;;;;;5006202;28;20810;-82
2021/09/28 07:42:26;;;;;;;4.53;3.73;;;16.80;99.90;;;;;;5005225;28;20546;-82
2021/09/28 07:44:53;;;;;;;4.33;3.90;;;16.90;99.90;;;;;;5003294;28;20883;-82
2021/09/28 07:47:20;;;;;;;5.60;4.17;;;16.80;99.90;;;;;;4994348;28;21002;-81
2021/09/28 07:49:46;;;;;;;3.90;3.40;;;16.80;99.90;;;;;;5007076;28;20457;-82
2021/09/28 07:52:12;;;;;;;4.40;3.20;;;16.80;99.90;;;;;;5003990;28;20451;-82
2021/09/28 07:54:40;;;;;;;3.37;2.60;;;16.70;99.90;;;;;;5008737;28;20468;-83
2021/09/28 07:57:06;;;;;;;5.23;3.17;;;16.80;99.90;;;;;;5009143;28;20436;-82
2021/09/28 07:59:32;;;;;;;3.77;3.43;;;16.80;99.90;;;;;;5013026;28;20498;-82
2021/09/28 08:02:00;;;;;;;3.40;3.10;;;16.70;99.90;;;;;;5010871;28;20807;-82
2021/09/28 08:04:26;;;;;;;3.80;2.43;;;16.70;99.90;;;;;;5004801;28;20181;-82
2021/09/28 08:06:54;;;;;;;3.47;3.17;;;16.80;99.90;;;;;;5014852;28;20436;-81
2021/09/28 08:09:22;;;;;;;3.20;3.00;;;17.00;99.90;;;;;;5014095;28;20228;-81
2021/09/28 08:11:48;;;;;;;4.47;2.97;;;16.90;99.90;;;;;;5010718;28;20443;-79
2021/09/28 08:14:14;;;;;;;2.47;2.30;;;17.10;99.90;;;;;;5019676;28;20459;-80
2021/09/28 08:16:42;;;;;;;6.73;3.40;;;17.20;99.90;;;;;;5020143;28;20512;-83
2021/09/28 08:19:08;;;;;;;4.03;3.40;;;17.40;99.90;;;;;;5010957;28;20437;-81
2021/09/28 08:21:34;;;;;;;3.30;3.07;;;17.60;99.90;;;;;;5012862;28;20471;-80
2021/09/28 08:24:01;;;;;;;3.07;2.87;;;17.80;99.90;;;;;;5013108;28;20444;-81
2021/09/28 08:29:09;;;;;;;7.13;2.67;;;17.90;99.90;;;;;;5012314;28;20492;-81
2021/09/28 08:31:36;;;;;;;3.03;2.73;;;18.10;99.90;;;;;;5010642;28;20959;-83
2021/09/28 08:34:03;;;;;;;3.33;3.03;;;18.20;99.90;;;;;;5017542;28;20472;-84
2021/09/28 08:36:30;;;;;;;6.53;2.37;;;18.10;99.90;;;;;;5015526;28;20448;-84
2021/09/28 08:38:56;;;;;;;3.63;2.50;;;17.90;99.90;;;;;;5013074;28;20755;-83
2021/09/28 08:41:23;;;;;;;5.20;2.77;;;17.80;99.90;;;;;;5019257;28;20496;-84
2021/09/28 08:43:49;;;;;;;5.97;3.77;;;17.70;99.90;;;;;;5017674;28;20489;-84
2021/09/28 08:46:16;;;;;;;3.23;2.67;;;17.60;99.90;;;;;;5012618;28;20478;-83
2021/09/28 08:48:43;;;;;;;2.90;2.70;;;17.60;99.90;;;;;;5028475;28;20448;-83
2021/09/28 08:51:10;;;;;;;3.17;2.73;;;17.60;99.90;;;;;;5030567;28;20463;-82
2021/09/28 08:53:37;;;;;;;2.40;2.03;;;18.30;99.90;;;;;;5035536;28;20467;-84
2021/09/28 08:56:04;;;;;;;2.00;1.90;;;18.70;99.90;;;;;;5016846;28;20483;-85
2021/09/28 08:58:32;;;;;;;3.43;3.03;;;19.10;99.90;;;;;;5018744;28;20443;-85
2021/09/28 09:01:07;;;;;;;5.93;2.47;;;19.50;99.90;;;;;;5018941;28;20626;-83
2021/09/28 09:03:35;;;;;;;2.40;2.20;;;19.80;99.90;;;;;;5015983;28;20428;-82
2021/09/28 09:06:03;;;;;;;2.90;2.20;;;19.80;99.90;;;;;;5021936;28;20463;-83
2021/09/28 09:08:33;;;;;;;2.70;2.50;;;19.80;99.90;;;;;;5017649;28;21221;-83
2021/09/28 09:11:07;;;;;;;2.80;2.40;;;19.50;99.90;;;;;;5014366;28;20448;-81
2021/09/28 09:13:39;;;;;;;2.70;2.47;;;19.70;99.90;;;;;;5014804;28;20480;-80
2021/09/28 09:16:07;;;;;;;4.23;2.13;;;19.20;99.90;;;;;;5014712;28;20509;-80
2021/09/28 09:18:34;;;;;;;3.13;2.73;;;19.30;99.90;;;;;;5016121;28;20753;-82
2021/09/28 09:21:02;;;;;;;2.30;2.20;;;19.10;99.90;;;;;;5010609;28;20467;-81
2021/09/28 09:23:34;;;;;;;3.00;2.37;;;18.90;99.90;;;;;;5007159;28;20458;-79
2021/09/28 09:26:06;;;;;;;1.70;1.60;;;18.70;99.90;;;;;;4986452;28;20483;-80
2021/09/28 09:28:37;;;;;;;2.60;2.40;;;18.60;99.90;;;;;;5009861;28;20498;-82
2021/09/28 09:31:15;;;;;;;3.23;2.93;;;18.70;99.90;;;;;;5008204;28;20438;-81
2021/09/28 09:33:43;;;;;;;2.40;2.20;;;20.40;99.90;;;;;;5011255;28;20472;-81
2021/09/28 09:36:09;;;;;;;5.53;2.83;;;20.00;99.90;;;;;;5000461;28;20440;-82
2021/09/28 09:38:46;;;;;;;2.30;2.10;;;19.70;99.90;;;;;;5018459;28;20448;-83
2021/09/28 09:41:12;;;;;;;6.40;1.87;;;19.30;99.90;;;;;;5017265;28;20458;-82
2021/09/28 09:43:38;;;;;;;2.03;1.93;;;19.00;99.90;;;;;;5014882;28;20515;-81
2021/09/28 09:46:14;;;;;;;2.53;2.33;;;18.90;99.90;;;;;;5017471;28;20455;-81
2021/09/28 09:48:44;;;;;;;3.23;2.43;;;19.80;99.90;;;;;;5015377;28;20200;-80
2021/09/28 09:51:16;;;;;;;3.70;2.03;;;20.00;99.90;;;;;;5015755;28;20456;-80
2021/09/28 09:53:57;;;;;;;2.80;2.20;;;20.00;99.90;;;;;;5015249;28;20603;-81
2021/09/28 09:56:43;;;;;;;3.77;2.17;;;19.50;99.90;;;;;;5020534;28;20428;-81
2021/09/28 09:59:10;;;;;;;3.00;2.10;;;20.50;99.90;;;;;;5025313;28;20435;-81
2021/09/28 10:01:37;;;;;;;2.20;2.10;;;20.90;99.90;;;;;;5026515;28;20444;-81
2021/09/28 10:04:06;;;;;;;3.73;2.80;;;21.10;99.90;;;;;;5020798;28;20436;-77
2021/09/28 10:06:32;;;;;;;2.53;2.00;;;20.80;99.90;;;;;;5021585;28;20443;-79
2021/09/28 10:08:59;;;;;;;2.30;2.20;;;20.90;99.90;;;;;;5016184;28;20556;-79
2021/09/28 10:11:26;;;;;;;1.90;1.80;;;21.00;99.90;;;;;;5015880;28;20452;-79
2021/09/28 10:13:56;;;;;;;2.00;1.80;;;20.70;99.90;;;;;;5015728;28;20519;-79
2021/09/28 10:16:38;;;;;;;2.50;2.30;;;20.60;99.90;;;;;;5015751;28;20508;-80
2021/09/28 10:19:26;;;;;;;2.30;2.20;;;20.20;99.90;;;;;;5012410;28;20466;-80
2021/09/28 10:21:52;;;;;;;2.03;1.63;;;20.10;99.90;;;;;;5017100;28;20498;-78
2021/09/28 10:24:34;;;;;;;1.83;1.70;;;20.50;99.90;;;;;;5016073;28;20807;-79
2021/09/28 10:27:25;;;;;;;2.00;1.90;;;21.00;99.90;;;;;;5016095;28;20756;-82
2021/09/28 10:29:53;;;;;;;1.67;1.57;;;21.40;99.90;;;;;;5015424;28;20453;-79
2021/09/28 10:32:43;;;;;;;2.97;2.63;;;21.40;99.90;;;;;;5015249;28;20452;-79
2021/09/28 10:35:14;;;;;;;2.57;2.37;;;21.10;99.90;;;;;;5002693;28;20967;-79
2021/09/28 10:37:49;;;;;;;2.37;2.17;;;20.90;99.90;;;;;;5018122;28;20534;-81
2021/09/28 10:40:45;;;;;;;1.93;1.83;;;20.70;99.90;;;;;;5017084;28;20534;-79
2021/09/28 10:43:30;;;;;;;2.43;2.00;;;20.80;99.90;;;;;;5019475;28;20444;-80
2021/09/28 10:45:57;;;;;;;4.80;1.80;;;21.60;99.90;;;;;;5013891;28;20463;-78
2021/09/28 10:48:39;;;;;;;1.63;1.53;;;22.10;99.90;;;;;;5023205;28;20455;-79
2021/09/28 10:51:14;;;;;;;3.50;2.37;;;22.40;99.90;;;;;;5019486;28;20487;-80
2021/09/28 10:53:45;;;;;;;2.00;1.90;;;23.30;99.90;;;;;;5012896;28;20573;-81
2021/09/28 10:56:13;;;;;;;2.20;2.00;;;23.90;99.90;;;;;;4989353;28;20444;-82
2021/09/28 10:59:01;;;;;;;3.47;2.07;;;24.00;99.90;;;;;;5007924;28;20463;-80
2021/09/28 11:01:30;;;;;;;1.73;1.63;;;24.00;99.90;;;;;;4990685;28;20435;-80
2021/09/28 11:04:04;;;;;;;3.47;1.83;;;24.50;99.90;;;;;;5010448;28;20527;-80
2021/09/28 11:06:50;;;;;;;2.77;1.60;;;23.60;99.90;;;;;;5025796;28;20454;-82
2021/09/28 11:09:19;;;;;;;6.63;1.97;;;24.40;99.90;;;;;;4992240;28;20549;-79
2021/09/28 11:11:50;;;;;;;2.37;1.97;;;24.10;99.90;;;;;;4990093;28;20479;-80
2021/09/28 11:14:16;;;;;;;4.27;1.87;;;23.70;99.90;;;;;;5009695;28;20522;-80
2021/09/28 11:16:50;;;;;;;2.90;2.60;;;22.70;99.90;;;;;;5015946;28;20534;-82
2021/09/28 11:19:17;;;;;;;2.83;2.37;;;20.70;99.90;;;;;;5015622;28;20493;-81
2021/09/28 11:21:46;;;;;;;3.63;2.43;;;20.70;99.90;;;;;;5016082;28;20816;-81
2021/09/28 11:24:13;;;;;;;2.17;1.60;;;21.50;99.90;;;;;;5015807;28;20882;-78
2021/09/28 11:26:42;;;;;;;1.93;1.80;;;21.30;99.90;;;;;;5018983;28;20494;-80
2021/09/28 11:29:12;;;;;;;2.40;2.17;;;21.40;99.90;;;;;;5016947;28;20451;-79
2021/09/28 11:31:45;;;;;;;3.17;2.30;;;21.60;99.90;;;;;;4992601;28;20443;-79
2021/09/28 11:34:11;;;;;;;2.10;2.00;;;21.50;99.90;;;;;;5016087;28;20490;-78
2021/09/28 11:36:41;;;;;;;2.10;1.90;;;23.00;99.90;;;;;;4981891;28;20441;-78
2021/09/28 11:39:15;;;;;;;2.63;2.43;;;22.70;99.90;;;;;;5016839;28;20804;-81
2021/09/28 11:41:51;;;;;;;2.40;2.00;;;22.40;99.90;;;;;;5007270;28;20500;-83
2021/09/28 11:44:45;;;;;;;3.67;2.73;;;21.10;99.90;;;;;;5018207;28;20433;-81
2021/09/28 11:47:20;;;;;;;3.10;1.90;;;21.70;99.90;;;;;;5013577;28;20435;-80
2021/09/28 11:49:51;;;;;;;3.37;1.63;;;21.80;99.90;;;;;;5006727;28;20439;-82
2021/09/28 11:52:17;;;;;;;2.10;1.90;;;21.60;99.90;;;;;;5004306;28;20447;-79
2021/09/28 11:54:45;;;;;;;2.00;1.90;;;20.00;99.90;;;;;;5006673;28;20823;-80
2021/09/28 11:57:11;;;;;;;1.87;1.67;;;19.30;99.90;;;;;;5010978;28;20432;-83
2021/09/28 11:59:37;;;;;;;6.90;4.27;;;19.00;99.90;;;;;;5009324;28;20807;-79
2021/09/28 12:02:03;;;;;;;2.90;2.70;;;19.00;99.90;;;;;;5007137;28;20436;-83
2021/09/28 12:04:43;;;;;;;2.37;2.17;;;19.70;99.90;;;;;;5013653;28;20443;-84
2021/09/28 12:09:51;;;;;;;1.90;1.80;;;20.20;99.90;;;;;;5014749;28;20921;-84
2021/09/28 12:12:21;;;;;;;1.83;1.70;;;21.30;99.90;;;;;;5006006;28;20475;-82
2021/09/28 12:14:55;;;;;;;2.40;2.20;;;22.20;99.90;;;;;;5015580;28;20523;-83
2021/09/28 12:17:38;;;;;;;3.60;2.20;;;21.50;99.90;;;;;;5013203;28;20439;-84
2021/09/28 12:20:09;;;;;;;1.60;1.50;;;22.50;99.90;;;;;;5008639;28;20440;-84
2021/09/28 12:22:53;;;;;;;2.33;2.10;;;22.10;99.90;;;;;;4993716;28;21041;-83
2021/09/28 12:25:37;;;;;;;2.30;2.10;;;21.90;99.90;;;;;;5011142;28;20451;-84
2021/09/28 12:28:07;;;;;;;2.03;1.70;;;21.80;99.90;;;;;;5016189;28;20900;-83
2021/09/28 12:30:47;;;;;;;2.10;1.90;;;20.50;99.90;;;;;;5015182;28;20444;-81
2021/09/28 12:33:14;;;;;;;2.60;2.10;;;19.90;99.90;;;;;;5008843;28;20475;-82
2021/09/28 12:35:40;;;;;;;1.53;1.43;;;20.60;99.90;;;;;;5011406;28;20476;-81
2021/09/28 12:38:09;;;;;;;1.80;1.70;;;20.80;99.90;;;;;;5014991;28;20937;-78
2021/09/28 12:40:41;;;;;;;1.60;1.50;;;21.10;99.90;;;;;;5012566;28;20451;-78
2021/09/28 12:43:14;;;;;;;2.13;2.00;;;20.50;99.90;;;;;;5015758;28;20462;-82
2021/09/28 12:45:43;;;;;;;2.30;2.10;;;20.40;99.90;;;;;;5024241;28;20854;-80
2021/09/28 12:48:10;;;;;;;1.87;1.63;;;20.50;99.90;;;;;;5024717;28;20492;-83
2021/09/28 12:50:37;;;;;;;2.90;1.90;;;21.20;99.90;;;;;;5024766;28;20444;-80
2021/09/28 12:53:08;;;;;;;3.37;2.07;;;22.30;99.90;;;;;;5018762;28;20476;-80
2021/09/28 12:55:37;;;;;;;2.10;2.00;;;21.50;99.90;;;;;;5024355;28;20522;-80